Aérodrome :
LOGIN :

S'inscrire | Disclaimer

   EN    FR    IT 

 










Légende :    VFR   VFR Marginal   IFR   IFR Intensif   IFR Très Intensif
Visi : 
Plafond : 
>= 8 km
>= 3000ft
5 à 8 km
1000 à 3000 ft
1500m à 5 km
500 à 1000 ft
800 à 1500m
200 à 500 ft
< 800m
< 200 ft
Symboles :   Orages  Brouillard  Fortes neiges  Fortes précipitations  Vent > 20 kt
SIGMETs :   Divers  Orages  Givrage  Turbulence  Onde Orograph.  Cendres Volcan.






- Altitude de l'aérodrome : 56 ft
- Code IATA : BZR


LFMU - Beziers / Vias

DERNIER METAR :
  • 170300Z AUTO 06012KT 8000 FEW008 BKN014 OVC026 12/12 Q1023 TEMPO 4000 DZ BR OVC005

METARs EXPIRÉS :
  • 170230Z AUTO 07011KT 7000 SCT008 BKN017 OVC022 12/12 Q1024 TEMPO 4000 DZ BR OVC005
  • 170200Z AUTO 07011KT 6000 BKN010 OVC015 12/12 Q1024
  • 170130Z AUTO 07011KT 5000 BR BKN007 OVC013 12/12 Q1024
  • 170100Z AUTO 08011KT 5000 BR BKN006 OVC024 13/12 Q1024
  • 170030Z AUTO 09012KT 7000 BKN005 OVC022 13/12 Q1024

TAF TAF LFMU
Valide du 17 à 03h jusqu'au 18 à 03h UTC


170200Z 1703/1803 08010KT 9999 BKN011 BKN015
TEMPO 1703/1715 4000 DZ BR OVC005
PROB40
TEMPO 1710/1715 36010KT
TEMPO 1715/1718 30010KT 3000 RA FEW035TCU
BECMG 1718/1720 30008KT BKN035
ATIS : +33 4 67 90 88 88



MET'MAP, la Météo Aéronautique d'un coup d'oeil ! - Copyright ORBIFLY Décembre 2007 - Disclaimer

ORBIFLY MET'MAP TEAM :

Programmation & Développement : Alexandra Zaïnal
Sur une idée originale de : Baudouin d'Aumeries
Assistance à la programmation : Marc-Olivier Méhu
Soutien technique & logistique : Manuel Goepfert

Contact : metmap@orbifly.com




SOURCES & CREDITS :

   NOAA